Time;durP1;ratioP1;P1;durP2;ratioP2;P2;SDS_P1;SDS_P2;PMS_P1;PMS_P2;Temp;Humidity;BMP_temperature;BMP_pressure;BME280_temperature;BME280_humidity;BME280_pressure;Samples;Min_cycle;Max_cycle;Signal;HPM_P1;HPM_P2
2022/10/06 00:09:13;;;;;;;;;;;;;;;;;;;;;
2022/10/06 00:22:04;;;;;;;9.20;2.47;;;11.40;99.90;;;;;;4719417;30;20044;-94
2022/10/06 00:28:49;;;;;;;;;;;;;;;;;;;;;
2022/10/06 00:42:03;;;;;;;;;;;;;;;;;;;;;
2022/10/06 00:45:07;;;;;;;;;;;;;;;;;;;;;
2022/10/06 00:47:43;;;;;;;9.00;2.30;;;11.20;99.90;;;;;;4913630;29;20046;-93
2022/10/06 00:51:07;;;;;;;;;;;;;;;;;;;;;
2022/10/06 00:53:39;;;;;;;12.07;3.13;;;11.00;99.90;;;;;;4932726;29;20032;-93
2022/10/06 00:56:55;;;;;;;;;;;;;;;;;;;;;
2022/10/06 01:00:08;;;;;;;;;;;;;;;;;;;;;
2022/10/06 01:03:09;;;;;;;;;;;;;;;;;;;;;
2022/10/06 01:06:02;;;;;;;;;;;;;;;;;;;;;
2022/10/06 01:15:56;;;;;;;;;;;;;;;;;;;;;
2022/10/06 01:19:11;;;;;;;;;;;;;;;;;;;;;
2022/10/06 01:24:51;;;;;;;;;;;;;;;;;;;;;
2022/10/06 01:27:35;;;;;;;14.20;2.28;;;10.80;99.90;;;;;;4895648;29;20049;-92
2022/10/06 01:36:54;;;;;;;19.30;2.80;;;10.90;99.90;;;;;;4839124;29;20046;-91
2022/10/06 01:39:53;;;;;;;;;;;;;;;;;;;;;
2022/10/06 01:42:35;;;;;;;;;;;;;;;;;;;;;
2022/10/06 01:45:11;;;;;;;18.58;3.47;;;10.90;99.90;;;;;;4890483;29;20045;-91
2022/10/06 01:55:10;;;;;;;;;;;;;;;;;;;;;
2022/10/06 01:58:33;;;;;;;;;;;;;;;;;;;;;
2022/10/06 02:02:07;;;;;;;;;;;;;;;;;;;;;
2022/10/06 02:05:15;;;;;;;;;;;;;;;;;;;;;
2022/10/06 02:14:28;;;;;;;16.60;2.97;;;12.30;99.90;;;;;;4840491;29;20564;-91
2022/10/06 02:17:05;;;;;;;11.70;2.70;;;10.70;99.90;;;;;;4881893;29;20042;-91
2022/10/06 02:20:18;;;;;;;13.32;2.70;;;10.80;99.90;;;;;;4901211;29;20074;-94
2022/10/06 02:34:44;;;;;;;14.70;2.95;;;;;;;;;;4817446;29;20067;-92
2022/10/06 02:37:49;;;;;;;;;;;;;;;;;;;;;
2022/10/06 02:47:42;;;;;;;14.15;3.13;;;10.50;99.90;;;;;;4722624;30;20045;-93
2022/10/06 03:01:22;;;;;;;;;;;;;;;;;;;;;
2022/10/06 03:04:48;;;;;;;;;;;;;;;;;;;;;
2022/10/06 03:07:45;;;;;;;;;;;;;;;;;;;;;
2022/10/06 03:10:21;;;;;;;;;;;;;;;;;;;;;
2022/10/06 03:13:32;;;;;;;8.85;2.45;;;10.10;99.90;;;;;;4772719;30;20035;-92
2022/10/06 03:19:19;;;;;;;12.25;2.42;;;10.00;99.90;;;;;;4891702;29;20036;-93
2022/10/06 03:24:54;;;;;;;8.55;2.10;;;9.90;99.90;;;;;;4899357;29;20032;-94
2022/10/06 03:27:45;;;;;;;11.90;2.40;;;9.90;99.90;;;;;;4881379;29;20083;-91
2022/10/06 03:33:13;;;;;;;17.60;2.70;;;9.80;99.90;;;;;;4906299;29;20524;-93
2022/10/06 03:35:50;;;;;;;8.20;2.17;;;9.80;99.90;;;;;;4936717;29;20028;-92
2022/10/06 03:38:55;;;;;;;8.68;2.05;;;9.80;99.90;;;;;;4928904;29;20027;-95
2022/10/06 03:41:56;;;;;;;;;;;;;;;;;;;;;
2022/10/06 03:48:18;;;;;;;;;;;;;;;;;;;;;
2022/10/06 03:51:19;;;;;;;;;;;;;;;;;;;;;
2022/10/06 03:54:07;;;;;;;13.35;2.38;;;9.80;99.90;;;;;;4932675;29;20078;-94
2022/10/06 04:00:08;;;;;;;;;;;;;;;;;;;;;
2022/10/06 04:02:55;;;;;;;;;;;;;;;;;;;;;
2022/10/06 04:08:41;;;;;;;8.27;2.17;;;9.60;99.90;;;;;;4880067;29;19923;-95
2022/10/06 04:11:21;;;;;;;;;;;;;;;;;;;;;
2022/10/06 04:20:07;;;;;;;7.07;2.17;;;9.50;99.90;;;;;;4861541;29;20021;-93
2022/10/06 04:22:32;;;;;;;;;;;9.80;99.90;;;;;;4939635;29;20636;-95
2022/10/06 04:24:58;;;;;;;9.48;2.15;;;;;;;;;;4944124;29;19911;-94
2022/10/06 04:27:27;;;;;;;9.88;2.75;;;;;;;;;;4944202;29;20170;-93
2022/10/06 04:29:55;;;;;;;11.90;2.13;;;9.50;99.90;;;;;;4934815;29;20031;-90
2022/10/06 04:32:20;;;;;;;10.47;2.47;;;9.50;99.90;;;;;;4923382;29;20091;-92
2022/10/06 04:34:46;;;;;;;5.93;1.92;;;;;;;;;;4914470;29;20130;-91
2022/10/06 04:37:12;;;;;;;7.38;2.10;;;;;;;;;;4913300;29;20131;-91
2022/10/06 04:39:38;;;;;;;6.53;2.13;;;9.30;99.90;;;;;;4918316;29;20075;-90
2022/10/06 04:42:06;;;;;;;9.70;2.17;;;;;;;;;;4926664;29;20024;-89
2022/10/06 04:44:32;;;;;;;14.18;2.38;;;;;;;;;;4931252;29;20519;-91
2022/10/06 04:46:59;;;;;;;10.73;2.28;;;;;;;;;;4931531;29;20028;-92
2022/10/06 04:49:28;;;;;;;6.80;2.35;;;;;;;;;;4937537;29;20031;-90
2022/10/06 04:51:55;;;;;;;7.38;2.20;;;9.10;99.90;;;;;;4946175;29;20024;-89
2022/10/06 04:54:21;;;;;;;9.43;2.38;;;;;;;;;;4924530;29;20098;-95
2022/10/06 04:56:47;;;;;;;14.88;2.60;;;;;;;;;;4925256;29;20040;-92
2022/10/06 04:59:15;;;;;;;6.25;2.33;;;;;;;;;;4922329;29;20083;-89
2022/10/06 05:02:01;;;;;;;7.05;2.03;;;8.40;99.90;;;;;;4939466;29;20054;-90
2022/10/06 05:04:27;;;;;;;6.20;2.40;;;;;;;;;;4894802;29;20032;-91
2022/10/06 05:06:53;;;;;;;6.75;2.22;;;9.10;99.90;;;;;;4911002;29;20048;-87
2022/10/06 05:09:19;;;;;;;13.88;2.78;;;;;;;;;;4907052;29;20103;-91
2022/10/06 05:11:45;;;;;;;8.02;2.30;;;;;;;;;;4904721;29;20372;-95
2022/10/06 05:14:11;;;;;;;8.10;2.25;;;9.00;99.90;;;;;;4913177;29;20036;-92
2022/10/06 05:16:37;;;;;;;13.73;2.78;;;;;;;;;;4897516;29;20043;-92
2022/10/06 05:19:03;;;;;;;9.13;2.47;;;;;;;;;;4899589;29;20036;-94
2022/10/06 05:21:31;;;;;;;10.10;2.75;;;9.00;99.90;;;;;;4897685;29;20060;-94
2022/10/06 05:23:57;;;;;;;10.20;2.40;;;;;;;;;;4913111;29;20040;-92
2022/10/06 05:26:25;;;;;;;8.40;2.72;;;9.00;99.90;;;;;;4887055;29;20284;-89
2022/10/06 05:28:52;;;;;;;9.57;2.45;;;;;;;;;;4913033;29;20480;-92
2022/10/06 05:31:27;;;;;;;10.65;3.08;;;9.00;99.90;;;;;;4925887;29;20103;-94
2022/10/06 05:33:56;;;;;;;10.60;3.00;;;8.90;99.90;;;;;;4906607;29;20032;-94
2022/10/06 05:36:28;;;;;;;6.75;2.53;;;9.20;99.90;;;;;;4948376;29;20036;-96
2022/10/06 05:39:48;;;;;;;7.50;2.20;;;9.00;99.90;;;;;;4933371;29;20036;-92
2022/10/06 05:42:44;;;;;;;10.90;2.70;;;9.20;99.90;;;;;;4942546;28;20043;-89
2022/10/06 05:45:10;;;;;;;12.32;2.53;;;;;;;;;;4944556;29;20130;-93
2022/10/06 05:47:50;;;;;;;8.05;2.97;;;11.00;99.90;;;;;;4940923;29;20035;-88
2022/10/06 05:50:17;;;;;;;16.55;3.10;;;;;;;;;;4953485;29;20216;-93
2022/10/06 05:52:43;;;;;;;10.10;2.88;;;;;;;;;;4944488;29;20031;-92
2022/10/06 05:55:09;;;;;;;7.00;2.47;;;8.80;99.90;;;;;;4943483;29;20038;-93
2022/10/06 05:57:49;;;;;;;;;;;;;;;;;;;;;
2022/10/06 06:00:18;;;;;;;9.10;2.58;;;9.10;99.90;;;;;;4950380;29;20059;-90
2022/10/06 06:02:46;;;;;;;;;;;8.90;99.90;;;;;;4949365;29;20027;-90
2022/10/06 06:05:25;;;;;;;11.52;2.88;;;8.50;99.90;;;;;;4941297;29;19918;-89
2022/10/06 06:08:32;;;;;;;8.98;2.80;;;8.50;99.90;;;;;;4949057;29;20205;-93
2022/10/06 06:12:00;;;;;;;6.72;2.60;;;8.50;99.90;;;;;;4948049;29;20039;-91
2022/10/06 06:24:26;;;;;;;6.03;2.53;;;8.90;99.90;;;;;;4908603;29;20032;-92
2022/10/06 06:27:26;;;;;;;;;;;;;;;;;;;;;
2022/10/06 06:30:02;;;;;;;7.78;2.67;;;;;;;;;;4951910;29;20375;-91
2022/10/06 06:36:12;;;;;;;10.88;2.63;;;8.50;99.90;;;;;;4927311;29;20039;-90
2022/10/06 06:39:42;;;;;;;5.82;2.20;;;8.50;99.90;;;;;;4879562;29;20068;-90
2022/10/06 06:42:22;;;;;;;11.23;3.25;;;9.40;99.90;;;;;;4934384;29;20057;-89
2022/10/06 06:52:40;;;;;;;;;;;;;;;;;;;;;
2022/10/06 06:59:38;;;;;;;12.15;3.00;;;8.60;99.90;;;;;;4891955;29;20096;-92
2022/10/06 07:09:37;;;;;;;;;;;;;;;;;;;;;
2022/10/06 07:12:44;;;;;;;;;;;;;;;;;;;;;
2022/10/06 07:27:09;;;;;;;13.45;3.70;;;9.50;99.90;;;;;;4942396;29;20030;-92
2022/10/06 07:29:38;;;;;;;10.82;3.40;;;9.40;99.90;;;;;;4944526;29;20036;-89
2022/10/06 07:32:07;;;;;;;11.65;3.85;;;;;;;;;;4949805;29;20052;-89
2022/10/06 07:34:33;;;;;;;13.05;4.05;;;;;;;;;;4947004;29;20028;-91
2022/10/06 07:40:41;;;;;;;11.35;3.22;;;10.00;99.90;;;;;;4932064;29;20039;-90
2022/10/06 07:44:05;;;;;;;13.25;3.22;;;10.30;99.90;;;;;;4888405;29;20037;-89
2022/10/06 07:46:35;;;;;;;18.48;3.47;;;;;;;;;;4873054;29;20072;-89
2022/10/06 07:49:46;;;;;;;13.73;3.13;;;10.50;99.90;;;;;;4861598;29;20036;-90
2022/10/06 07:52:23;;;;;;;12.85;3.90;;;10.80;99.90;;;;;;4877683;29;20452;-90
2022/10/06 07:55:17;;;;;;;11.70;4.18;;;10.70;99.90;;;;;;4891154;29;20100;-90
2022/10/06 07:57:50;;;;;;;13.93;3.72;;;10.80;99.90;;;;;;4880713;29;20021;-90
2022/10/06 08:04:01;;;;;;;14.77;3.45;;;10.90;99.90;;;;;;4888719;29;20040;-90
2022/10/06 08:06:33;;;;;;;19.35;4.03;;;;;;;;;;4846152;29;20121;-90
2022/10/06 08:09:19;;;;;;;17.50;3.70;;;;;;;;;;4852905;29;20049;-90
2022/10/06 08:11:48;;;;;;;13.05;3.38;;;11.40;99.90;;;;;;4831660;29;20037;-94
2022/10/06 08:14:37;;;;;;;;;;;;;;;;;;;;;
2022/10/06 08:17:25;;;;;;;;;;;;;;;;;;;;;
2022/10/06 08:19:53;;;;;;;16.40;3.03;;;;;;;;;;4905127;29;20430;-93
2022/10/06 08:22:20;;;;;;;25.05;3.55;;;;;;;;;;4900359;29;20309;-92
2022/10/06 08:25:03;;;;;;;;;;;;;;;;;;;;;
2022/10/06 08:27:43;;;;;;;;;;;;;;;;;;;;;
2022/10/06 08:31:05;;;;;;;17.63;3.72;;;12.10;99.90;;;;;;4904269;29;20124;-90
2022/10/06 08:33:43;;;;;;;13.75;3.05;;;10.80;99.90;;;;;;4823172;29;20030;-93
2022/10/06 08:36:13;;;;;;;15.10;3.17;;;12.20;99.90;;;;;;4826512;29;20046;-94
2022/10/06 08:38:40;;;;;;;17.60;3.45;;;12.20;99.90;;;;;;4875474;29;20029;-90
2022/10/06 08:41:27;;;;;;;17.58;3.65;;;12.30;99.90;;;;;;4875447;29;20040;-92
2022/10/06 08:44:14;;;;;;;19.27;3.60;;;12.60;99.90;;;;;;4875448;29;20071;-90
2022/10/06 08:46:49;;;;;;;16.38;3.10;;;12.70;99.90;;;;;;4875327;29;20037;-92
2022/10/06 08:49:22;;;;;;;23.73;4.07;;;12.70;99.90;;;;;;4875175;29;20073;-91
2022/10/06 08:52:09;;;;;;;20.30;3.95;;;12.70;99.90;;;;;;4873748;29;20041;-92
2022/10/06 08:54:49;;;;;;;15.98;3.30;;;12.80;99.90;;;;;;4873166;29;20068;-92
2022/10/06 08:57:30;;;;;;;18.65;3.38;;;12.90;99.90;;;;;;4874295;29;20036;-89
2022/10/06 09:00:02;;;;;;;12.20;2.65;;;12.90;99.90;;;;;;4875829;29;20052;-90
2022/10/06 09:02:42;;;;;;;32.10;4.03;;;13.00;99.90;;;;;;4869041;29;20040;-90
2022/10/06 09:05:11;;;;;;;22.67;3.78;;;12.30;99.90;;;;;;4908134;29;20051;-89
2022/10/06 09:07:49;;;;;;;19.17;3.58;;;13.00;99.90;;;;;;4930847;29;20040;-89
2022/10/06 09:10:27;;;;;;;15.50;3.67;;;12.70;99.90;;;;;;4931242;29;20040;-90
2022/10/06 09:13:03;;;;;;;32.05;4.32;;;13.10;99.90;;;;;;4931664;29;20404;-89
2022/10/06 09:15:45;;;;;;;24.98;3.50;;;14.10;99.90;;;;;;4932088;29;20031;-91
2022/10/06 09:18:12;;;;;;;20.55;3.55;;;;;;;;;;4931629;29;20465;-90
2022/10/06 09:20:56;;;;;;;22.02;3.25;;;13.50;99.90;;;;;;4931662;29;20034;-90
2022/10/06 09:26:14;;;;;;;20.65;3.42;;;13.70;99.90;;;;;;4932588;29;20517;-89
2022/10/06 09:28:44;;;;;;;18.20;2.85;;;;;;;;;;4930269;29;20086;-89
2022/10/06 09:31:36;;;;;;;24.05;3.50;;;13.90;99.90;;;;;;4931553;29;20027;-89
2022/10/06 09:34:12;;;;;;;12.68;2.67;;;14.10;99.90;;;;;;4932540;29;20086;-90
2022/10/06 09:36:59;;;;;;;20.15;3.15;;;13.50;99.90;;;;;;4931255;29;20035;-89
2022/10/06 09:39:31;;;;;;;18.00;3.17;;;14.10;99.90;;;;;;4932119;29;20047;-91
2022/10/06 09:42:01;;;;;;;20.42;3.20;;;14.20;99.90;;;;;;4931940;29;20135;-90
2022/10/06 09:44:37;;;;;;;21.58;3.03;;;14.20;99.90;;;;;;4921887;29;20028;-89
2022/10/06 09:47:43;;;;;;;19.95;3.08;;;14.40;99.90;;;;;;4911980;29;20035;-89
2022/10/06 09:50:21;;;;;;;21.77;2.97;;;14.50;99.90;;;;;;4912006;29;20036;-90
2022/10/06 09:53:02;;;;;;;20.88;2.88;;;14.60;99.90;;;;;;4912099;29;20032;-89
2022/10/06 09:55:42;;;;;;;23.83;2.97;;;14.60;99.90;;;;;;4928693;29;20036;-89
2022/10/06 09:58:33;;;;;;;16.40;2.67;;;14.40;99.90;;;;;;4911826;29;20036;-88
2022/10/06 10:01:06;;;;;;;16.10;2.95;;;14.40;99.90;;;;;;4912719;29;20036;-90
2022/10/06 10:03:50;;;;;;;18.33;3.00;;;14.60;99.90;;;;;;4912024;29;20508;-89
2022/10/06 10:06:26;;;;;;;21.27;2.97;;;15.30;99.90;;;;;;4917230;29;20036;-91
2022/10/06 10:09:24;;;;;;;17.33;3.40;;;14.60;99.90;;;;;;4929652;29;20093;-89
2022/10/06 10:12:26;;;;;;;22.88;3.50;;;14.80;99.90;;;;;;4932124;29;20027;-88
2022/10/06 10:15:10;;;;;;;13.27;2.80;;;14.70;99.90;;;;;;4931724;29;20032;-89
2022/10/06 10:17:42;;;;;;;19.30;2.67;;;14.70;99.90;;;;;;4928724;29;20032;-91
2022/10/06 10:20:49;;;;;;;19.58;2.67;;;14.70;99.90;;;;;;4922420;29;20095;-90
2022/10/06 10:23:31;;;;;;;16.95;2.67;;;14.80;99.90;;;;;;4913383;29;20032;-89
2022/10/06 10:26:42;;;;;;;14.20;2.40;;;14.90;99.90;;;;;;4933010;29;20043;-91
2022/10/06 10:29:39;;;;;;;17.85;2.55;;;14.90;99.90;;;;;;4928960;29;20133;-92
2022/10/06 10:32:36;;;;;;;11.30;2.60;;;14.90;99.90;;;;;;4930254;29;20024;-89
2022/10/06 10:35:12;;;;;;;13.15;2.05;;;14.70;99.90;;;;;;4932703;29;20103;-90
2022/10/06 10:37:47;;;;;;;11.00;1.95;;;14.70;99.90;;;;;;4929206;29;20063;-89
2022/10/06 10:40:41;;;;;;;16.00;2.42;;;14.60;99.90;;;;;;4914802;29;20103;-89
2022/10/06 10:43:09;;;;;;;12.00;2.25;;;;;;;;;;4922422;29;20032;-89
2022/10/06 10:45:42;;;;;;;12.35;1.85;;;14.30;99.90;;;;;;4934602;29;20032;-91
2022/10/06 10:48:28;;;;;;;13.40;2.22;;;14.30;99.90;;;;;;4935432;29;20035;-90
2022/10/06 10:51:33;;;;;;;16.63;2.83;;;14.20;99.90;;;;;;4930684;29;20028;-90
2022/10/06 10:54:23;;;;;;;15.77;2.00;;;14.20;99.90;;;;;;4854904;29;20480;-87
2022/10/06 10:56:51;;;;;;;15.02;2.38;;;14.60;99.90;;;;;;4916457;29;20492;-89
2022/10/06 10:59:17;;;;;;;17.77;3.53;;;14.60;99.90;;;;;;4934642;29;20497;-91
2022/10/06 11:01:55;;;;;;;13.55;2.97;;;14.70;99.90;;;;;;4922519;29;20059;-91
2022/10/06 11:04:21;;;;;;;16.73;2.55;;;;;;;;;;4920973;29;20042;-89
2022/10/06 11:07:11;;;;;;;13.30;2.28;;;15.10;99.90;;;;;;4929252;29;20492;-89
2022/10/06 11:09:48;;;;;;;14.23;2.22;;;15.20;99.90;;;;;;4924150;29;20043;-90
2022/10/06 11:12:26;;;;;;;14.90;2.42;;;15.10;99.90;;;;;;4932140;29;20028;-89
2022/10/06 11:15:12;;;;;;;9.05;1.92;;;15.20;99.90;;;;;;4931719;29;20122;-89
2022/10/06 11:17:45;;;;;;;14.35;2.25;;;14.90;99.90;;;;;;4924120;29;20040;-88
2022/10/06 11:20:14;;;;;;;16.13;2.28;;;15.10;99.90;;;;;;4915667;29;20024;-88
2022/10/06 11:22:43;;;;;;;;;;;14.90;99.90;;;;;;4935271;29;20370;-90
2022/10/06 11:25:27;;;;;;;11.60;2.20;;;14.80;99.90;;;;;;4934223;29;19906;-91
2022/10/06 11:27:53;;;;;;;9.82;2.05;;;;;;;;;;4922081;29;20036;-91
2022/10/06 11:30:25;;;;;;;13.20;2.10;;;14.80;99.90;;;;;;4932055;29;20823;-90
2022/10/06 11:33:12;;;;;;;15.82;2.42;;;14.90;99.90;;;;;;4928114;29;20120;-89
2022/10/06 11:35:43;;;;;;;14.53;2.23;;;14.90;99.90;;;;;;4933969;29;20508;-89
2022/10/06 11:38:36;;;;;;;8.85;2.28;;;14.90;99.90;;;;;;4932095;29;20378;-91
2022/10/06 11:41:09;;;;;;;12.05;2.03;;;15.00;99.90;;;;;;4915651;29;20052;-89
2022/10/06 11:43:50;;;;;;;9.85;2.47;;;15.00;99.90;;;;;;4914087;29;20032;-89
2022/10/06 11:46:35;;;;;;;9.48;1.95;;;15.10;99.90;;;;;;4927779;29;20032;-92
2022/10/06 11:49:31;;;;;;;13.75;2.22;;;15.30;99.90;;;;;;4919648;29;20036;-89
2022/10/06 11:52:06;;;;;;;13.88;1.95;;;15.20;99.90;;;;;;4935464;29;20514;-89
2022/10/06 11:54:50;;;;;;;14.88;2.28;;;15.20;99.90;;;;;;4933538;29;20132;-91
2022/10/06 11:57:24;;;;;;;9.82;2.00;;;15.40;99.90;;;;;;4921594;29;20023;-88
2022/10/06 12:00:10;;;;;;;11.40;2.00;;;15.20;99.90;;;;;;4934191;29;20489;-91
2022/10/06 12:02:41;;;;;;;11.75;2.30;;;15.30;99.90;;;;;;4892506;29;20074;-88
2022/10/06 12:05:17;;;;;;;11.90;2.42;;;15.40;99.90;;;;;;4913832;29;20035;-90
2022/10/06 12:07:55;;;;;;;9.48;2.03;;;17.80;99.90;;;;;;4914580;29;20032;-91
2022/10/06 12:10:27;;;;;;;12.73;2.08;;;15.40;99.90;;;;;;4923836;29;20040;-95
2022/10/06 12:13:23;;;;;;;9.43;2.20;;;15.00;99.90;;;;;;4932261;29;20032;-88
2022/10/06 12:16:01;;;;;;;11.73;1.85;;;15.00;99.90;;;;;;4919885;29;20290;-89
2022/10/06 12:18:47;;;;;;;10.00;2.30;;;15.10;99.90;;;;;;4933525;29;20079;-90
2022/10/06 12:21:19;;;;;;;11.20;2.03;;;15.00;99.90;;;;;;4933775;29;20102;-90
2022/10/06 12:23:45;;;;;;;8.70;1.98;;;;;;;;;;4932008;29;20031;-91
2022/10/06 12:26:32;;;;;;;7.53;1.85;;;15.30;99.90;;;;;;4927776;29;20036;-91
2022/10/06 12:29:40;;;;;;;11.43;2.10;;;15.40;99.90;;;;;;4915600;29;20519;-89
2022/10/06 12:32:31;;;;;;;10.40;2.05;;;15.20;99.90;;;;;;4916350;29;20099;-89
2022/10/06 12:35:12;;;;;;;12.60;2.30;;;15.10;99.90;;;;;;4926868;29;20021;-93
2022/10/06 12:37:56;;;;;;;10.98;2.10;;;15.10;99.90;;;;;;4913114;29;20043;-91
2022/10/06 12:40:40;;;;;;;9.88;1.63;;;15.10;99.90;;;;;;4918837;29;20038;-89
2022/10/06 12:43:27;;;;;;;7.30;1.50;;;15.50;99.90;;;;;;4933095;29;20147;-89
2022/10/06 12:46:35;;;;;;;7.55;1.90;;;15.30;99.90;;;;;;4933285;29;20028;-91
2022/10/06 12:49:39;;;;;;;14.43;2.22;;;15.20;99.90;;;;;;4931412;29;20492;-89
2022/10/06 12:52:48;;;;;;;12.07;1.90;;;15.30;99.90;;;;;;4931357;29;20126;-92
2022/10/06 12:55:38;;;;;;;8.57;1.80;;;15.30;99.90;;;;;;4914903;29;20032;-90
2022/10/06 12:58:07;;;;;;;11.50;2.42;;;;;;;;;;4913474;29;20111;-90
2022/10/06 13:00:39;;;;;;;12.18;2.17;;;15.60;99.90;;;;;;4912823;29;20032;-89
2022/10/06 13:03:07;;;;;;;14.63;2.38;;;15.60;99.90;;;;;;4928721;29;20034;-89
2022/10/06 13:05:36;;;;;;;13.20;2.38;;;15.90;99.90;;;;;;4931565;29;20038;-89
2022/10/06 13:08:03;;;;;;;;;;;16.10;99.90;;;;;;4916888;29;20136;-92
2022/10/06 13:10:31;;;;;;;13.77;2.08;;;16.00;99.90;;;;;;4931992;29;19915;-88
2022/10/06 13:12:57;;;;;;;7.47;1.80;;;;;;;;;;4930854;29;20122;-90
2022/10/06 13:15:26;;;;;;;13.98;2.20;;;16.00;99.90;;;;;;4912424;29;20038;-90
2022/10/06 13:17:55;;;;;;;7.38;2.00;;;15.90;99.90;;;;;;4930308;29;20031;-90
2022/10/06 13:20:21;;;;;;;9.35;1.83;;;;;;;;;;4925978;29;20058;-90
2022/10/06 13:23:27;;;;;;;7.90;2.15;;;16.20;99.90;;;;;;4931353;29;20059;-90
2022/10/06 13:26:03;;;;;;;13.35;2.22;;;16.40;99.90;;;;;;4930368;29;20031;-90
2022/10/06 13:28:33;;;;;;;9.45;1.83;;;16.50;99.90;;;;;;4930669;29;20462;-89
2022/10/06 13:31:04;;;;;;;11.38;1.95;;;16.70;99.90;;;;;;4931304;29;20031;-92
2022/10/06 13:33:39;;;;;;;10.23;2.22;;;16.70;99.90;;;;;;4931142;29;20032;-88
2022/10/06 13:36:05;;;;;;;12.18;2.45;;;16.50;99.90;;;;;;4933639;29;20032;-91
2022/10/06 13:38:33;;;;;;;12.35;1.90;;;;;;;;;;4933631;29;20024;-89
2022/10/06 13:41:14;;;;;;;14.63;2.35;;;16.50;99.90;;;;;;4930214;29;20142;-89
2022/10/06 13:43:46;;;;;;;14.60;2.38;;;16.50;99.90;;;;;;4931531;29;20036;-89
2022/10/06 13:46:18;;;;;;;11.23;2.13;;;16.50;99.90;;;;;;4932721;29;20086;-90
2022/10/06 13:48:51;;;;;;;7.65;2.22;;;16.50;99.90;;;;;;4929417;29;20515;-93
2022/10/06 13:51:20;;;;;;;14.50;2.38;;;16.60;99.90;;;;;;4930474;29;20024;-90
2022/10/06 13:53:47;;;;;;;11.07;2.10;;;;;;;;;;4934322;29;20031;-89
2022/10/06 13:56:31;;;;;;;10.80;2.15;;;16.70;99.90;;;;;;4933443;29;20024;-88
2022/10/06 13:59:15;;;;;;;6.82;1.80;;;16.80;99.90;;;;;;4933408;29;20396;-89
2022/10/06 14:01:41;;;;;;;10.57;2.28;;;;;;;;;;4934937;29;20022;-88
2022/10/06 14:04:31;;;;;;;15.77;2.55;;;16.60;99.90;;;;;;4935724;29;20039;-90
2022/10/06 14:07:00;;;;;;;8.02;1.90;;;16.60;99.90;;;;;;4933809;29;20024;-89
2022/10/06 14:09:33;;;;;;;11.27;2.28;;;16.60;99.90;;;;;;4930450;29;20063;-88
2022/10/06 14:12:25;;;;;;;12.73;2.30;;;16.70;99.90;;;;;;4929117;29;20047;-89
2022/10/06 14:14:51;;;;;;;8.48;2.13;;;16.50;99.90;;;;;;4918593;29;20044;-90
2022/10/06 14:17:43;;;;;;;12.07;2.40;;;16.40;99.90;;;;;;4914030;29;20028;-90
2022/10/06 14:20:45;;;;;;;7.43;2.10;;;16.70;99.90;;;;;;4928082;29;20039;-90
2022/10/06 14:23:46;;;;;;;;;;;;;;;;;;;;;
2022/10/06 14:26:48;;;;;;;;;;;;;;;;;;;;;
2022/10/06 14:29:15;;;;;;;10.10;1.92;;;;;;;;;;4934993;29;20050;-91
2022/10/06 14:31:50;;;;;;;8.45;2.10;;;;;;;;;;4936727;29;20024;-93
2022/10/06 14:34:43;;;;;;;16.05;2.55;;;16.50;99.90;;;;;;4935969;29;20019;-93
2022/10/06 14:37:39;;;;;;;;;;;;;;;;;;;;;
2022/10/06 14:40:41;;;;;;;;;;;;;;;;;;;;;
2022/10/06 14:43:10;;;;;;;11.23;1.90;;;;;;;;;;4923471;29;20028;-90
2022/10/06 14:45:54;;;;;;;10.55;2.20;;;16.80;99.90;;;;;;4930204;29;20036;-90
2022/10/06 14:49:05;;;;;;;14.15;3.03;;;16.80;99.90;;;;;;4931601;29;20146;-90
2022/10/06 15:04:40;;;;;;;14.30;3.08;;;16.70;99.90;;;;;;4888006;29;20043;-90
2022/10/06 15:09:51;;;;;;;8.23;2.05;;;16.70;99.90;;;;;;4913498;29;20103;-92
2022/10/06 15:12:17;;;;;;;13.30;2.50;;;;;;;;;;4930763;29;20035;-87
2022/10/06 15:14:45;;;;;;;14.00;2.85;;;;;;;;;;4930608;29;20034;-90
2022/10/06 15:17:11;;;;;;;;;;;16.70;99.90;;;;;;4914210;29;20124;-88
2022/10/06 15:19:39;;;;;;;13.98;2.72;;;16.80;99.90;;;;;;4912475;29;19994;-88
2022/10/06 15:22:07;;;;;;;8.07;2.15;;;16.80;99.90;;;;;;4916153;29;20019;-89
2022/10/06 15:24:33;;;;;;;12.02;2.60;;;16.80;99.90;;;;;;4931805;29;20069;-91
2022/10/06 15:29:44;;;;;;;9.13;2.22;;;;;;;;;;4934254;29;20047;-90
2022/10/06 15:32:10;;;;;;;13.13;2.72;;;;;;;;;;4933668;29;20020;-91
2022/10/06 15:34:39;;;;;;;8.57;2.85;;;;;;;;;;4936235;29;20038;-91
2022/10/06 15:37:05;;;;;;;10.13;2.40;;;;;;;;;;4916774;29;20032;-90
2022/10/06 15:39:34;;;;;;;11.77;2.75;;;16.50;99.90;;;;;;4932383;29;20023;-88
2022/10/06 15:42:00;;;;;;;15.38;3.13;;;;;;;;;;4933036;29;20542;-90
2022/10/06 15:44:26;;;;;;;15.55;2.50;;;;;;;;;;4942605;29;20024;-92
2022/10/06 15:46:54;;;;;;;10.45;2.40;;;16.50;99.90;;;;;;4935411;29;20027;-93
2022/10/06 15:49:22;;;;;;;7.65;2.42;;;16.60;99.90;;;;;;4933011;29;20047;-91
2022/10/06 15:51:51;;;;;;;10.75;2.55;;;16.50;99.90;;;;;;4932272;29;20032;-89
2022/10/06 15:54:20;;;;;;;10.43;2.47;;;16.50;99.90;;;;;;4931801;29;20051;-88
2022/10/06 15:56:47;;;;;;;14.52;2.90;;;16.50;99.90;;;;;;4931844;29;20027;-88
2022/10/06 15:59:14;;;;;;;9.45;2.50;;;;;;;;;;4932527;29;20428;-89
2022/10/06 16:01:45;;;;;;;9.48;2.65;;;16.40;99.90;;;;;;4933933;29;20042;-91
2022/10/06 16:06:56;;;;;;;12.15;2.75;;;;;;;;;;4920544;29;20031;-90
2022/10/06 16:09:33;;;;;;;17.40;2.72;;;16.30;99.90;;;;;;4931765;29;20039;-90
2022/10/06 16:12:05;;;;;;;12.73;3.10;;;17.30;99.90;;;;;;4933417;29;20440;-92
2022/10/06 16:14:34;;;;;;;15.10;2.72;;;16.30;99.90;;;;;;4922700;29;20040;-91
2022/10/06 16:17:11;;;;;;;;;;;;;;;;;;;;;
2022/10/06 16:19:41;;;;;;;12.80;2.83;;;;;;;;;;4927685;29;20020;-90
2022/10/06 16:22:09;;;;;;;12.10;2.08;;;16.30;99.90;;;;;;4923358;29;20031;-90
2022/10/06 16:24:37;;;;;;;;;;;16.30;99.90;;;;;;4920322;29;20032;-89
2022/10/06 16:27:09;;;;;;;8.43;2.10;;;16.30;99.90;;;;;;4931533;29;19965;-89
2022/10/06 16:29:34;;;;;;;6.25;2.30;;;16.70;99.90;;;;;;4931363;29;20081;-88
2022/10/06 16:32:05;;;;;;;11.63;3.00;;;16.20;99.90;;;;;;4931524;29;20059;-89
2022/10/06 16:34:31;;;;;;;11.52;2.53;;;;;;;;;;4933710;29;20050;-89
2022/10/06 16:36:57;;;;;;;12.00;2.92;;;;;;;;;;4934074;29;20042;-89
2022/10/06 16:39:23;;;;;;;10.93;2.42;;;16.10;99.90;;;;;;4918561;29;20031;-89
2022/10/06 16:41:50;;;;;;;8.65;2.00;;;;;;;;;;4933655;29;20040;-88
2022/10/06 16:44:17;;;;;;;10.25;2.80;;;16.10;99.90;;;;;;4932585;29;20023;-88
2022/10/06 16:46:44;;;;;;;11.18;2.42;;;16.00;99.90;;;;;;4922811;29;20103;-88
2022/10/06 16:49:13;;;;;;;15.80;2.58;;;;;;;;;;4928950;29;20400;-89
2022/10/06 16:51:41;;;;;;;8.10;2.13;;;15.90;99.90;;;;;;4931999;29;20468;-88
2022/10/06 16:54:08;;;;;;;;;;;16.00;99.90;;;;;;4933884;29;20472;-89
2022/10/06 16:56:36;;;;;;;10.88;2.63;;;15.80;99.90;;;;;;4928381;29;19918;-88
2022/10/06 17:01:59;;;;;;;9.52;2.40;;;15.70;99.90;;;;;;4901018;29;20044;-88
2022/10/06 17:04:25;;;;;;;8.77;2.15;;;;;;;;;;4928946;29;20487;-90
2022/10/06 17:06:53;;;;;;;11.10;2.40;;;15.40;99.90;;;;;;4931945;29;20032;-87
2022/10/06 17:09:21;;;;;;;7.30;2.58;;;15.30;99.90;;;;;;4931453;29;20054;-89
2022/10/06 17:11:49;;;;;;;8.38;2.13;;;15.30;99.90;;;;;;4931491;29;20027;-91
2022/10/06 17:14:15;;;;;;;10.27;2.35;;;15.20;99.90;;;;;;4927177;29;20495;-90
2022/10/06 17:16:43;;;;;;;8.07;2.03;;;15.20;99.90;;;;;;4932495;29;20492;-88
2022/10/06 17:19:13;;;;;;;5.28;2.03;;;15.40;99.90;;;;;;4931454;29;20031;-92
2022/10/06 17:21:48;;;;;;;9.13;2.45;;;15.00;99.90;;;;;;4932372;29;20035;-92
2022/10/06 17:24:16;;;;;;;6.75;1.98;;;;;;;;;;4938521;28;20032;-90
2022/10/06 17:26:46;;;;;;;10.20;2.05;;;14.80;99.90;;;;;;4931547;29;20031;-91
2022/10/06 17:29:33;;;;;;;7.10;2.13;;;14.80;99.90;;;;;;4912466;29;20493;-89
2022/10/06 17:32:02;;;;;;;5.93;2.08;;;14.70;99.90;;;;;;4915476;29;20036;-91
2022/10/06 17:34:40;;;;;;;8.18;2.20;;;14.60;99.90;;;;;;4914199;29;20071;-89
2022/10/06 17:37:16;;;;;;;9.40;2.47;;;14.50;99.90;;;;;;4913761;29;20036;-91
2022/10/06 17:39:42;;;;;;;9.65;2.10;;;;;;;;;;4913562;29;20032;-90
2022/10/06 17:42:10;;;;;;;6.55;2.20;;;;;;;;;;4924560;29;20036;-90
2022/10/06 17:44:38;;;;;;;9.63;2.22;;;;;;;;;;4941905;29;20023;-90
2022/10/06 17:47:07;;;;;;;10.63;2.55;;;14.20;99.90;;;;;;4938492;29;20036;-91
2022/10/06 17:49:34;;;;;;;7.22;2.03;;;;;;;;;;4933836;29;20048;-93
2022/10/06 17:51:59;;;;;;;9.95;2.58;;;14.10;99.90;;;;;;4933788;29;20102;-89
2022/10/06 17:54:27;;;;;;;8.35;1.85;;;14.20;99.90;;;;;;4933204;29;20065;-92
2022/10/06 17:57:52;;;;;;;8.57;2.45;;;14.00;99.90;;;;;;4927957;29;20051;-94
2022/10/06 18:00:18;;;;;;;7.03;2.15;;;;;;;;;;4918411;29;20072;-93
2022/10/06 18:02:45;;;;;;;10.13;2.30;;;;;;;;;;4926175;29;20095;-91
2022/10/06 18:05:10;;;;;;;7.47;2.22;;;13.70;99.90;;;;;;4931912;29;20051;-91
2022/10/06 18:07:37;;;;;;;7.75;2.28;;;12.10;99.90;;;;;;4926975;29;20063;-91
2022/10/06 18:12:49;;;;;;;6.70;1.98;;;;;;;;;;4912922;29;20520;-91
2022/10/06 18:15:15;;;;;;;6.68;2.22;;;;;;;;;;4913052;29;20040;-89
2022/10/06 18:17:41;;;;;;;11.15;2.17;;;;;;;;;;4913153;29;20024;-91
2022/10/06 18:20:08;;;;;;;7.15;2.20;;;13.30;99.90;;;;;;4921449;29;20039;-90